sensor_id;sensor_type;location;lat;lon;timestamp;temperature;humidity
79016;DHT22;68420;44.714;37.756;2023-04-06T00:00:34;26.97;39.94
79016;DHT22;68420;44.714;37.756;2023-04-06T00:01:36;26.97;39.94
79016;DHT22;68420;44.714;37.756;2023-04-06T00:02:38;26.95;40.02
79016;DHT22;68420;44.714;37.756;2023-04-06T00:03:39;26.92;40.11
79016;DHT22;68420;44.714;37.756;2023-04-06T00:04:41;26.94;40.20
79016;DHT22;68420;44.714;37.756;2023-04-06T00:05:42;26.97;40.26
79016;DHT22;68420;44.714;37.756;2023-04-06T00:06:44;26.97;40.18
79016;DHT22;68420;44.714;37.756;2023-04-06T00:07:45;26.99;40.12
79016;DHT22;68420;44.714;37.756;2023-04-06T00:08:47;26.99;40.09
79016;DHT22;68420;44.714;37.756;2023-04-06T00:09:48;26.98;40.10
79016;DHT22;68420;44.714;37.756;2023-04-06T00:10:50;27.01;40.12
79016;DHT22;68420;44.714;37.756;2023-04-06T00:11:52;27.01;40.02
79016;DHT22;68420;44.714;37.756;2023-04-06T00:12:54;27.02;40.00
79016;DHT22;68420;44.714;37.756;2023-04-06T00:13:57;27.02;39.96
79016;DHT22;68420;44.714;37.756;2023-04-06T00:14:59;27.02;39.95
79016;DHT22;68420;44.714;37.756;2023-04-06T00:16:02;27.04;39.93
79016;DHT22;68420;44.714;37.756;2023-04-06T00:17:04;27.04;39.91
79016;DHT22;68420;44.714;37.756;2023-04-06T00:18:05;27.04;39.86
79016;DHT22;68420;44.714;37.756;2023-04-06T00:19:07;27.06;39.89
79016;DHT22;68420;44.714;37.756;2023-04-06T00:20:09;27.05;39.89
79016;DHT22;68420;44.714;37.756;2023-04-06T00:21:14;27.04;39.89
79016;DHT22;68420;44.714;37.756;2023-04-06T00:22:16;27.05;39.89
79016;DHT22;68420;44.714;37.756;2023-04-06T00:23:17;27.05;39.86
79016;DHT22;68420;44.714;37.756;2023-04-06T00:24:19;27.02;39.87
79016;DHT22;68420;44.714;37.756;2023-04-06T00:25:20;27.04;39.87
79016;DHT22;68420;44.714;37.756;2023-04-06T00:26:22;27.04;39.94
79016;DHT22;68420;44.714;37.756;2023-04-06T00:27:24;27.01;39.94
79016;DHT22;68420;44.714;37.756;2023-04-06T00:28:26;27.02;39.91
79016;DHT22;68420;44.714;37.756;2023-04-06T00:29:27;27.02;39.88
79016;DHT22;68420;44.714;37.756;2023-04-06T00:30:29;27.02;39.88
79016;DHT22;68420;44.714;37.756;2023-04-06T00:31:30;27.02;39.91
79016;DHT22;68420;44.714;37.756;2023-04-06T00:32:32;27.01;39.92
79016;DHT22;68420;44.714;37.756;2023-04-06T00:33:34;27.04;39.92
79016;DHT22;68420;44.714;37.756;2023-04-06T00:34:35;26.99;39.99
79016;DHT22;68420;44.714;37.756;2023-04-06T00:35:37;27.01;40.00
79016;DHT22;68420;44.714;37.756;2023-04-06T00:36:40;27.02;39.97
79016;DHT22;68420;44.714;37.756;2023-04-06T00:37:41;27.01;39.94
79016;DHT22;68420;44.714;37.756;2023-04-06T00:38:43;27.01;39.92
79016;DHT22;68420;44.714;37.756;2023-04-06T00:39:45;27.01;39.94
79016;DHT22;68420;44.714;37.756;2023-04-06T00:40:47;27.01;39.88
79016;DHT22;68420;44.714;37.756;2023-04-06T00:41:51;27.01;39.91
79016;DHT22;68420;44.714;37.756;2023-04-06T00:42:54;27.02;39.91
79016;DHT22;68420;44.714;37.756;2023-04-06T00:43:56;27.01;39.85
79016;DHT22;68420;44.714;37.756;2023-04-06T00:44:59;27.01;39.88
79016;DHT22;68420;44.714;37.756;2023-04-06T00:46:01;27.01;39.87
79016;DHT22;68420;44.714;37.756;2023-04-06T00:47:02;26.99;39.83
79016;DHT22;68420;44.714;37.756;2023-04-06T00:48:04;26.99;39.85
79016;DHT22;68420;44.714;37.756;2023-04-06T00:49:06;27.01;39.79
79016;DHT22;68420;44.714;37.756;2023-04-06T00:50:08;27.02;39.79
79016;DHT22;68420;44.714;37.756;2023-04-06T00:51:10;27.02;39.80
79016;DHT22;68420;44.714;37.756;2023-04-06T00:52:11;27.01;39.78
79016;DHT22;68420;44.714;37.756;2023-04-06T00:53:13;27.01;39.79
79016;DHT22;68420;44.714;37.756;2023-04-06T00:54:16;27.01;39.81
79016;DHT22;68420;44.714;37.756;2023-04-06T00:55:18;26.98;39.80
79016;DHT22;68420;44.714;37.756;2023-04-06T00:56:20;27.01;39.84
79016;DHT22;68420;44.714;37.756;2023-04-06T00:57:27;26.97;39.81
79016;DHT22;68420;44.714;37.756;2023-04-06T00:58:31;26.97;39.84
79016;DHT22;68420;44.714;37.756;2023-04-06T00:59:39;26.98;39.87
79016;DHT22;68420;44.714;37.756;2023-04-06T01:00:44;26.98;39.83
79016;DHT22;68420;44.714;37.756;2023-04-06T01:01:51;26.99;39.84
79016;DHT22;68420;44.714;37.756;2023-04-06T01:03:05;26.97;39.88
79016;DHT22;68420;44.714;37.756;2023-04-06T01:04:13;26.97;39.83
79016;DHT22;68420;44.714;37.756;2023-04-06T01:05:17;26.97;39.86
79016;DHT22;68420;44.714;37.756;2023-04-06T01:06:24;26.98;39.77
79016;DHT22;68420;44.714;37.756;2023-04-06T01:07:33;26.98;39.79
79016;DHT22;68420;44.714;37.756;2023-04-06T01:08:46;26.95;39.82
79016;DHT22;68420;44.714;37.756;2023-04-06T01:09:54;26.95;39.79
79016;DHT22;68420;44.714;37.756;2023-04-06T01:11:00;26.94;39.81
79016;DHT22;68420;44.714;37.756;2023-04-06T01:12:05;26.94;39.80
79016;DHT22;68420;44.714;37.756;2023-04-06T01:13:09;26.92;39.80
79016;DHT22;68420;44.714;37.756;2023-04-06T01:14:43;26.95;39.84
79016;DHT22;68420;44.714;37.756;2023-04-06T01:15:45;26.92;39.84
79016;DHT22;68420;44.714;37.756;2023-04-06T01:16:52;26.90;39.80
79016;DHT22;68420;44.714;37.756;2023-04-06T01:17:58;26.91;39.86
79016;DHT22;68420;44.714;37.756;2023-04-06T01:18:59;26.90;39.86
79016;DHT22;68420;44.714;37.756;2023-04-06T01:20:05;26.90;39.93
79016;DHT22;68420;44.714;37.756;2023-04-06T01:21:08;26.91;39.84
79016;DHT22;68420;44.714;37.756;2023-04-06T01:22:18;26.91;39.81
79016;DHT22;68420;44.714;37.756;2023-04-06T01:23:27;26.94;39.82
79016;DHT22;68420;44.714;37.756;2023-04-06T01:24:28;26.91;39.81
79016;DHT22;68420;44.714;37.756;2023-04-06T01:25:44;26.91;39.81
79016;DHT22;68420;44.714;37.756;2023-04-06T01:26:45;26.90;39.78
79016;DHT22;68420;44.714;37.756;2023-04-06T01:27:47;26.91;39.75
79016;DHT22;68420;44.714;37.756;2023-04-06T01:29:09;26.88;39.79
79016;DHT22;68420;44.714;37.756;2023-04-06T01:30:10;26.90;39.83
79016;DHT22;68420;44.714;37.756;2023-04-06T01:31:39;26.88;39.79
79016;DHT22;68420;44.714;37.756;2023-04-06T01:32:40;26.86;39.83
79016;DHT22;68420;44.714;37.756;2023-04-06T01:33:43;26.87;39.85
79016;DHT22;68420;44.714;37.756;2023-04-06T01:34:48;26.84;39.84
79016;DHT22;68420;44.714;37.756;2023-04-06T01:35:50;26.88;39.84
79016;DHT22;68420;44.714;37.756;2023-04-06T01:36:54;26.90;39.81
79016;DHT22;68420;44.714;37.756;2023-04-06T01:38:01;26.90;39.81
79016;DHT22;68420;44.714;37.756;2023-04-06T01:39:08;26.91;39.76
79016;DHT22;68420;44.714;37.756;2023-04-06T01:40:12;26.91;39.74
79016;DHT22;68420;44.714;37.756;2023-04-06T01:41:24;26.91;39.74
79016;DHT22;68420;44.714;37.756;2023-04-06T01:42:27;26.91;39.78
79016;DHT22;68420;44.714;37.756;2023-04-06T01:43:29;26.90;39.75
79016;DHT22;68420;44.714;37.756;2023-04-06T01:44:42;26.90;39.74
79016;DHT22;68420;44.714;37.756;2023-04-06T01:45:48;26.91;39.74
79016;DHT22;68420;44.714;37.756;2023-04-06T01:46:54;26.87;39.73
79016;DHT22;68420;44.714;37.756;2023-04-06T01:47:57;26.87;39.80
79016;DHT22;68420;44.714;37.756;2023-04-06T01:49:01;26.87;39.78
79016;DHT22;68420;44.714;37.756;2023-04-06T01:50:09;26.88;39.70
79016;DHT22;68420;44.714;37.756;2023-04-06T01:51:16;26.90;39.71
79016;DHT22;68420;44.714;37.756;2023-04-06T01:52:26;26.88;39.71
79016;DHT22;68420;44.714;37.756;2023-04-06T01:53:29;26.88;39.71
79016;DHT22;68420;44.714;37.756;2023-04-06T01:54:36;26.88;39.70
79016;DHT22;68420;44.714;37.756;2023-04-06T01:55:41;26.87;39.74
79016;DHT22;68420;44.714;37.756;2023-04-06T01:57:11;26.90;39.68
79016;DHT22;68420;44.714;37.756;2023-04-06T01:58:21;26.88;39.66
79016;DHT22;68420;44.714;37.756;2023-04-06T01:59:22;26.86;39.70
79016;DHT22;68420;44.714;37.756;2023-04-06T02:00:24;26.84;39.75
79016;DHT22;68420;44.714;37.756;2023-04-06T02:01:28;26.87;39.74
79016;DHT22;68420;44.714;37.756;2023-04-06T02:02:31;26.88;39.71
79016;DHT22;68420;44.714;37.756;2023-04-06T02:03:41;26.86;39.68
79016;DHT22;68420;44.714;37.756;2023-04-06T02:04:45;26.88;39.71
79016;DHT22;68420;44.714;37.756;2023-04-06T02:05:48;26.87;39.70
79016;DHT22;68420;44.714;37.756;2023-04-06T02:06:56;26.86;39.69
79016;DHT22;68420;44.714;37.756;2023-04-06T02:08:00;26.87;39.63
79016;DHT22;68420;44.714;37.756;2023-04-06T02:09:07;26.87;39.66
79016;DHT22;68420;44.714;37.756;2023-04-06T02:10:13;26.88;39.65
79016;DHT22;68420;44.714;37.756;2023-04-06T02:11:15;26.90;39.61
79016;DHT22;68420;44.714;37.756;2023-04-06T02:12:23;26.91;39.64
79016;DHT22;68420;44.714;37.756;2023-04-06T02:13:25;26.90;39.66
79016;DHT22;68420;44.714;37.756;2023-04-06T02:14:28;26.90;39.66
79016;DHT22;68420;44.714;37.756;2023-04-06T02:15:33;26.88;39.66
79016;DHT22;68420;44.714;37.756;2023-04-06T02:16:34;26.87;39.61
79016;DHT22;68420;44.714;37.756;2023-04-06T02:17:36;26.91;39.62
79016;DHT22;68420;44.714;37.756;2023-04-06T02:18:38;26.91;39.61
79016;DHT22;68420;44.714;37.756;2023-04-06T02:19:39;26.92;39.61
79016;DHT22;68420;44.714;37.756;2023-04-06T02:20:41;26.91;39.57
79016;DHT22;68420;44.714;37.756;2023-04-06T02:21:42;26.91;39.59
79016;DHT22;68420;44.714;37.756;2023-04-06T02:22:44;26.88;39.56
79016;DHT22;68420;44.714;37.756;2023-04-06T02:23:46;26.91;39.53
79016;DHT22;68420;44.714;37.756;2023-04-06T02:24:48;26.90;39.55
79016;DHT22;68420;44.714;37.756;2023-04-06T02:25:50;26.90;39.54
79016;DHT22;68420;44.714;37.756;2023-04-06T02:26:51;26.90;39.59
79016;DHT22;68420;44.714;37.756;2023-04-06T02:27:53;26.90;39.59
79016;DHT22;68420;44.714;37.756;2023-04-06T02:28:55;26.87;39.56
79016;DHT22;68420;44.714;37.756;2023-04-06T02:29:57;26.92;39.54
79016;DHT22;68420;44.714;37.756;2023-04-06T02:30:58;26.92;39.47
79016;DHT22;68420;44.714;37.756;2023-04-06T02:32:02;26.88;39.52
79016;DHT22;68420;44.714;37.756;2023-04-06T02:33:06;26.90;39.52
79016;DHT22;68420;44.714;37.756;2023-04-06T02:34:15;26.91;39.49
79016;DHT22;68420;44.714;37.756;2023-04-06T02:35:22;26.91;39.49
79016;DHT22;68420;44.714;37.756;2023-04-06T02:36:28;26.92;39.48
79016;DHT22;68420;44.714;37.756;2023-04-06T02:37:30;26.92;39.48
79016;DHT22;68420;44.714;37.756;2023-04-06T02:38:31;26.92;39.47
79016;DHT22;68420;44.714;37.756;2023-04-06T02:39:35;26.90;39.49
79016;DHT22;68420;44.714;37.756;2023-04-06T02:40:38;26.90;39.44
79016;DHT22;68420;44.714;37.756;2023-04-06T02:41:59;26.91;39.43
79016;DHT22;68420;44.714;37.756;2023-04-06T02:43:01;26.91;39.51
79016;DHT22;68420;44.714;37.756;2023-04-06T02:44:07;26.92;39.48
79016;DHT22;68420;44.714;37.756;2023-04-06T02:45:14;26.94;39.48
79016;DHT22;68420;44.714;37.756;2023-04-06T02:46:19;26.91;39.51
79016;DHT22;68420;44.714;37.756;2023-04-06T02:47:21;26.90;39.52
79016;DHT22;68420;44.714;37.756;2023-04-06T02:48:25;26.90;39.51
79016;DHT22;68420;44.714;37.756;2023-04-06T02:49:27;26.88;39.49
79016;DHT22;68420;44.714;37.756;2023-04-06T02:50:31;26.90;39.51
79016;DHT22;68420;44.714;37.756;2023-04-06T02:51:37;26.90;39.51
79016;DHT22;68420;44.714;37.756;2023-04-06T02:52:55;26.87;39.53
79016;DHT22;68420;44.714;37.756;2023-04-06T02:53:58;26.87;39.56
79016;DHT22;68420;44.714;37.756;2023-04-06T02:55:00;26.88;39.53
79016;DHT22;68420;44.714;37.756;2023-04-06T02:56:04;26.90;39.48
79016;DHT22;68420;44.714;37.756;2023-04-06T02:57:16;26.87;39.45
79016;DHT22;68420;44.714;37.756;2023-04-06T02:58:20;26.90;39.53
79016;DHT22;68420;44.714;37.756;2023-04-06T02:59:26;26.88;39.57
79016;DHT22;68420;44.714;37.756;2023-04-06T03:00:39;26.88;39.53
79016;DHT22;68420;44.714;37.756;2023-04-06T03:01:41;26.87;39.53
79016;DHT22;68420;44.714;37.756;2023-04-06T03:02:42;26.88;39.52
79016;DHT22;68420;44.714;37.756;2023-04-06T03:03:48;26.90;39.46
79016;DHT22;68420;44.714;37.756;2023-04-06T03:04:57;26.90;39.48
79016;DHT22;68420;44.714;37.756;2023-04-06T03:06:04;26.91;39.49
79016;DHT22;68420;44.714;37.756;2023-04-06T03:07:06;26.90;39.41
79016;DHT22;68420;44.714;37.756;2023-04-06T03:08:11;26.88;39.41
79016;DHT22;68420;44.714;37.756;2023-04-06T03:09:21;26.90;39.46
79016;DHT22;68420;44.714;37.756;2023-04-06T03:10:23;26.86;39.46
79016;DHT22;68420;44.714;37.756;2023-04-06T03:11:24;26.87;39.50
79016;DHT22;68420;44.714;37.756;2023-04-06T03:12:27;26.88;39.49
79016;DHT22;68420;44.714;37.756;2023-04-06T03:13:49;26.90;39.43
79016;DHT22;68420;44.714;37.756;2023-04-06T03:14:50;26.88;39.48
79016;DHT22;68420;44.714;37.756;2023-04-06T03:15:52;26.90;39.47
79016;DHT22;68420;44.714;37.756;2023-04-06T03:16:55;26.87;39.44
79016;DHT22;68420;44.714;37.756;2023-04-06T03:17:59;26.90;39.37
79016;DHT22;68420;44.714;37.756;2023-04-06T03:19:12;26.88;39.39
79016;DHT22;68420;44.714;37.756;2023-04-06T03:20:13;26.87;39.43
79016;DHT22;68420;44.714;37.756;2023-04-06T03:21:16;26.90;39.41
79016;DHT22;68420;44.714;37.756;2023-04-06T03:22:29;26.90;39.36
79016;DHT22;68420;44.714;37.756;2023-04-06T03:23:30;26.87;39.45
79016;DHT22;68420;44.714;37.756;2023-04-06T03:24:34;26.90;39.43
79016;DHT22;68420;44.714;37.756;2023-04-06T03:25:36;26.88;39.44
79016;DHT22;68420;44.714;37.756;2023-04-06T03:26:40;26.88;39.37
79016;DHT22;68420;44.714;37.756;2023-04-06T03:27:43;26.87;39.43
79016;DHT22;68420;44.714;37.756;2023-04-06T03:28:48;26.86;39.48
79016;DHT22;68420;44.714;37.756;2023-04-06T03:29:50;26.86;39.41
79016;DHT22;68420;44.714;37.756;2023-04-06T03:30:58;26.86;39.46
79016;DHT22;68420;44.714;37.756;2023-04-06T03:32:24;26.84;39.51
79016;DHT22;68420;44.714;37.756;2023-04-06T03:33:26;26.83;39.52
79016;DHT22;68420;44.714;37.756;2023-04-06T03:34:31;26.83;39.58
79016;DHT22;68420;44.714;37.756;2023-04-06T03:35:33;26.84;39.54
79016;DHT22;68420;44.714;37.756;2023-04-06T03:36:35;26.84;39.55
79016;DHT22;68420;44.714;37.756;2023-04-06T03:37:38;26.87;39.50
79016;DHT22;68420;44.714;37.756;2023-04-06T03:38:40;26.87;39.49
79016;DHT22;68420;44.714;37.756;2023-04-06T03:39:46;26.90;39.44
79016;DHT22;68420;44.714;37.756;2023-04-06T03:40:52;26.88;39.30
79016;DHT22;68420;44.714;37.756;2023-04-06T03:41:58;26.88;39.36
79016;DHT22;68420;44.714;37.756;2023-04-06T03:43:08;26.90;39.39
79016;DHT22;68420;44.714;37.756;2023-04-06T03:44:12;26.88;39.45
79016;DHT22;68420;44.714;37.756;2023-04-06T03:45:13;26.88;39.39
79016;DHT22;68420;44.714;37.756;2023-04-06T03:46:21;26.88;39.35
79016;DHT22;68420;44.714;37.756;2023-04-06T03:47:25;26.88;39.36
79016;DHT22;68420;44.714;37.756;2023-04-06T03:48:31;26.87;39.36
79016;DHT22;68420;44.714;37.756;2023-04-06T03:49:37;26.90;39.37
79016;DHT22;68420;44.714;37.756;2023-04-06T03:50:41;26.88;39.35
79016;DHT22;68420;44.714;37.756;2023-04-06T03:51:42;26.88;39.37
79016;DHT22;68420;44.714;37.756;2023-04-06T03:52:44;26.88;39.92
79016;DHT22;68420;44.714;37.756;2023-04-06T03:53:46;26.88;40.09
79016;DHT22;68420;44.714;37.756;2023-04-06T03:54:48;26.87;40.33
79016;DHT22;68420;44.714;37.756;2023-04-06T03:55:49;26.87;40.44
79016;DHT22;68420;44.714;37.756;2023-04-06T03:56:51;26.86;40.50
79016;DHT22;68420;44.714;37.756;2023-04-06T03:57:53;26.88;40.52
79016;DHT22;68420;44.714;37.756;2023-04-06T03:58:54;26.91;40.64
79016;DHT22;68420;44.714;37.756;2023-04-06T03:59:56;26.88;40.89
79016;DHT22;68420;44.714;37.756;2023-04-06T04:01:00;26.87;40.98
79016;DHT22;68420;44.714;37.756;2023-04-06T04:02:02;26.83;41.05
79016;DHT22;68420;44.714;37.756;2023-04-06T04:03:04;26.84;41.32
79016;DHT22;68420;44.714;37.756;2023-04-06T04:04:06;26.86;41.37
79016;DHT22;68420;44.714;37.756;2023-04-06T04:05:08;26.84;41.36
79016;DHT22;68420;44.714;37.756;2023-04-06T04:06:11;26.84;41.41
79016;DHT22;68420;44.714;37.756;2023-04-06T04:07:15;26.84;41.50
79016;DHT22;68420;44.714;37.756;2023-04-06T04:08:17;26.84;41.47
79016;DHT22;68420;44.714;37.756;2023-04-06T04:09:18;26.86;41.55
79016;DHT22;68420;44.714;37.756;2023-04-06T04:10:20;26.87;41.57
79016;DHT22;68420;44.714;37.756;2023-04-06T04:11:22;26.87;41.40
79016;DHT22;68420;44.714;37.756;2023-04-06T04:12:29;26.87;41.38
79016;DHT22;68420;44.714;37.756;2023-04-06T04:13:32;26.91;41.31
79016;DHT22;68420;44.714;37.756;2023-04-06T04:14:34;26.92;41.26
79016;DHT22;68420;44.714;37.756;2023-04-06T04:15:36;26.94;41.16
79016;DHT22;68420;44.714;37.756;2023-04-06T04:16:38;26.94;41.15
79016;DHT22;68420;44.714;37.756;2023-04-06T04:17:40;26.94;41.14
79016;DHT22;68420;44.714;37.756;2023-04-06T04:18:42;26.94;41.14
79016;DHT22;68420;44.714;37.756;2023-04-06T04:19:44;26.91;41.20
79016;DHT22;68420;44.714;37.756;2023-04-06T04:20:46;26.90;41.21
79016;DHT22;68420;44.714;37.756;2023-04-06T04:21:48;26.92;41.20
79016;DHT22;68420;44.714;37.756;2023-04-06T04:22:54;26.91;41.30
79016;DHT22;68420;44.714;37.756;2023-04-06T04:23:56;26.86;41.29
79016;DHT22;68420;44.714;37.756;2023-04-06T04:24:57;26.88;41.26
79016;DHT22;68420;44.714;37.756;2023-04-06T04:26:00;26.94;41.04
79016;DHT22;68420;44.714;37.756;2023-04-06T04:27:01;26.94;40.71
79016;DHT22;68420;44.714;37.756;2023-04-06T04:28:05;26.98;40.59
79016;DHT22;68420;44.714;37.756;2023-04-06T04:29:07;26.98;40.40
79016;DHT22;68420;44.714;37.756;2023-04-06T04:30:11;27.01;40.19
79016;DHT22;68420;44.714;37.756;2023-04-06T04:31:12;27.01;40.20
79016;DHT22;68420;44.714;37.756;2023-04-06T04:32:14;26.98;40.15
79016;DHT22;68420;44.714;37.756;2023-04-06T04:33:19;27.02;40.14
79016;DHT22;68420;44.714;37.756;2023-04-06T04:34:20;27.02;40.02
79016;DHT22;68420;44.714;37.756;2023-04-06T04:35:22;27.02;40.01
79016;DHT22;68420;44.714;37.756;2023-04-06T04:36:24;26.99;39.96
79016;DHT22;68420;44.714;37.756;2023-04-06T04:37:28;27.01;39.99
79016;DHT22;68420;44.714;37.756;2023-04-06T04:38:30;27.01;40.01
79016;DHT22;68420;44.714;37.756;2023-04-06T04:39:32;26.99;40.01
79016;DHT22;68420;44.714;37.756;2023-04-06T04:40:38;26.99;39.99
79016;DHT22;68420;44.714;37.756;2023-04-06T04:41:46;27.02;39.94
79016;DHT22;68420;44.714;37.756;2023-04-06T04:42:48;27.01;39.94
79016;DHT22;68420;44.714;37.756;2023-04-06T04:43:59;27.01;39.89
79016;DHT22;68420;44.714;37.756;2023-04-06T04:45:02;26.99;39.95
79016;DHT22;68420;44.714;37.756;2023-04-06T04:46:13;26.99;39.99
79016;DHT22;68420;44.714;37.756;2023-04-06T04:47:17;26.99;39.89
79016;DHT22;68420;44.714;37.756;2023-04-06T04:48:21;26.99;39.93
79016;DHT22;68420;44.714;37.756;2023-04-06T04:49:27;26.98;39.91
79016;DHT22;68420;44.714;37.756;2023-04-06T04:50:30;26.98;39.92
79016;DHT22;68420;44.714;37.756;2023-04-06T04:51:33;26.99;39.92
79016;DHT22;68420;44.714;37.756;2023-04-06T04:52:57;26.99;39.88
79016;DHT22;68420;44.714;37.756;2023-04-06T04:54:00;26.97;39.89
79016;DHT22;68420;44.714;37.756;2023-04-06T04:55:05;26.97;39.89
79016;DHT22;68420;44.714;37.756;2023-04-06T04:56:07;26.98;39.88
79016;DHT22;68420;44.714;37.756;2023-04-06T04:57:08;26.97;39.90
79016;DHT22;68420;44.714;37.756;2023-04-06T04:58:16;26.94;39.93
79016;DHT22;68420;44.714;37.756;2023-04-06T04:59:28;26.92;39.93
79016;DHT22;68420;44.714;37.756;2023-04-06T05:00:36;26.92;39.95
79016;DHT22;68420;44.714;37.756;2023-04-06T05:01:38;26.90;39.95
79016;DHT22;68420;44.714;37.756;2023-04-06T05:02:40;26.90;39.95
79016;DHT22;68420;44.714;37.756;2023-04-06T05:03:58;26.90;39.95
79016;DHT22;68420;44.714;37.756;2023-04-06T05:04:59;26.88;39.96
79016;DHT22;68420;44.714;37.756;2023-04-06T05:06:03;26.86;40.00
79016;DHT22;68420;44.714;37.756;2023-04-06T05:07:09;26.87;40.01
79016;DHT22;68420;44.714;37.756;2023-04-06T05:08:12;26.84;40.01
79016;DHT22;68420;44.714;37.756;2023-04-06T05:09:20;26.83;40.02
79016;DHT22;68420;44.714;37.756;2023-04-06T05:10:22;26.80;40.01
79016;DHT22;68420;44.714;37.756;2023-04-06T05:11:33;26.83;40.00
79016;DHT22;68420;44.714;37.756;2023-04-06T05:12:37;26.83;39.97
79016;DHT22;68420;44.714;37.756;2023-04-06T05:13:41;26.84;40.01
79016;DHT22;68420;44.714;37.756;2023-04-06T05:14:48;26.84;39.98
79016;DHT22;68420;44.714;37.756;2023-04-06T05:15:53;26.83;39.98
79016;DHT22;68420;44.714;37.756;2023-04-06T05:17:07;26.84;39.97
79016;DHT22;68420;44.714;37.756;2023-04-06T05:18:09;26.81;39.99
79016;DHT22;68420;44.714;37.756;2023-04-06T05:19:10;26.81;40.05
79016;DHT22;68420;44.714;37.756;2023-04-06T05:20:17;26.76;40.00
79016;DHT22;68420;44.714;37.756;2023-04-06T05:21:23;26.77;40.02
79016;DHT22;68420;44.714;37.756;2023-04-06T05:22:32;26.76;40.01
79016;DHT22;68420;44.714;37.756;2023-04-06T05:23:41;26.76;40.06
79016;DHT22;68420;44.714;37.756;2023-04-06T05:24:43;26.76;40.08
79016;DHT22;68420;44.714;37.756;2023-04-06T05:25:45;26.76;40.04
79016;DHT22;68420;44.714;37.756;2023-04-06T05:26:54;26.76;40.06
79016;DHT22;68420;44.714;37.756;2023-04-06T05:27:58;26.73;40.06
79016;DHT22;68420;44.714;37.756;2023-04-06T05:29:11;26.73;40.06
79016;DHT22;68420;44.714;37.756;2023-04-06T05:30:14;26.73;40.03
79016;DHT22;68420;44.714;37.756;2023-04-06T05:31:19;26.70;40.05
79016;DHT22;68420;44.714;37.756;2023-04-06T05:32:24;26.73;40.03
79016;DHT22;68420;44.714;37.756;2023-04-06T05:33:27;26.73;40.05
79016;DHT22;68420;44.714;37.756;2023-04-06T05:34:37;26.71;40.06
79016;DHT22;68420;44.714;37.756;2023-04-06T05:35:39;26.70;40.03
79016;DHT22;68420;44.714;37.756;2023-04-06T05:36:45;26.69;40.07
79016;DHT22;68420;44.714;37.756;2023-04-06T05:37:53;26.69;40.08
79016;DHT22;68420;44.714;37.756;2023-04-06T05:38:58;26.70;40.11
79016;DHT22;68420;44.714;37.756;2023-04-06T05:40:26;26.69;40.08
79016;DHT22;68420;44.714;37.756;2023-04-06T05:41:27;26.69;40.09
79016;DHT22;68420;44.714;37.756;2023-04-06T05:42:40;26.65;40.08
79016;DHT22;68420;44.714;37.756;2023-04-06T05:43:45;26.65;40.11
79016;DHT22;68420;44.714;37.756;2023-04-06T05:44:47;26.65;40.12
79016;DHT22;68420;44.714;37.756;2023-04-06T05:45:50;26.63;40.11
79016;DHT22;68420;44.714;37.756;2023-04-06T05:46:52;26.65;40.09
79016;DHT22;68420;44.714;37.756;2023-04-06T05:47:53;26.64;40.11
79016;DHT22;68420;44.714;37.756;2023-04-06T05:49:00;26.64;40.08
79016;DHT22;68420;44.714;37.756;2023-04-06T05:50:05;26.64;40.09
79016;DHT22;68420;44.714;37.756;2023-04-06T05:51:10;26.61;40.08
79016;DHT22;68420;44.714;37.756;2023-04-06T05:52:20;26.64;40.10
79016;DHT22;68420;44.714;37.756;2023-04-06T05:53:23;26.65;40.09
79016;DHT22;68420;44.714;37.756;2023-04-06T05:54:30;26.63;40.11
79016;DHT22;68420;44.714;37.756;2023-04-06T05:55:35;26.63;40.08
79016;DHT22;68420;44.714;37.756;2023-04-06T05:56:56;26.61;40.09
79016;DHT22;68420;44.714;37.756;2023-04-06T05:57:57;26.60;40.13
79016;DHT22;68420;44.714;37.756;2023-04-06T05:58:59;26.60;40.14
79016;DHT22;68420;44.714;37.756;2023-04-06T06:00:05;26.60;40.16
79016;DHT22;68420;44.714;37.756;2023-04-06T06:01:18;26.57;40.15
79016;DHT22;68420;44.714;37.756;2023-04-06T06:02:21;26.57;40.11
79016;DHT22;68420;44.714;37.756;2023-04-06T06:03:26;26.57;40.13
79016;DHT22;68420;44.714;37.756;2023-04-06T06:04:30;26.59;40.08
79016;DHT22;68420;44.714;37.756;2023-04-06T06:05:32;26.57;40.13
79016;DHT22;68420;44.714;37.756;2023-04-06T06:06:40;26.57;40.10
79016;DHT22;68420;44.714;37.756;2023-04-06T06:07:54;26.57;40.12
79016;DHT22;68420;44.714;37.756;2023-04-06T06:08:56;26.56;40.12
79016;DHT22;68420;44.714;37.756;2023-04-06T06:10:03;26.54;40.08
79016;DHT22;68420;44.714;37.756;2023-04-06T06:11:10;26.54;40.13
79016;DHT22;68420;44.714;37.756;2023-04-06T06:12:12;26.54;40.17
79016;DHT22;68420;44.714;37.756;2023-04-06T06:13:13;26.51;40.13
79016;DHT22;68420;44.714;37.756;2023-04-06T06:14:15;26.53;40.18
79016;DHT22;68420;44.714;37.756;2023-04-06T06:15:18;26.54;40.13
79016;DHT22;68420;44.714;37.756;2023-04-06T06:16:22;26.53;40.13
79016;DHT22;68420;44.714;37.756;2023-04-06T06:17:23;26.51;40.10
79016;DHT22;68420;44.714;37.756;2023-04-06T06:18:25;26.50;40.17
79016;DHT22;68420;44.714;37.756;2023-04-06T06:19:28;26.51;40.13
79016;DHT22;68420;44.714;37.756;2023-04-06T06:20:32;26.51;40.15
79016;DHT22;68420;44.714;37.756;2023-04-06T06:21:37;26.49;40.17
79016;DHT22;68420;44.714;37.756;2023-04-06T06:22:40;26.47;40.23
79016;DHT22;68420;44.714;37.756;2023-04-06T06:23:45;26.44;40.25
79016;DHT22;68420;44.714;37.756;2023-04-06T06:24:51;26.46;40.21
79016;DHT22;68420;44.714;37.756;2023-04-06T06:25:54;26.46;40.26
79016;DHT22;68420;44.714;37.756;2023-04-06T06:26:59;26.44;40.17
79016;DHT22;68420;44.714;37.756;2023-04-06T06:28:03;26.42;40.26
79016;DHT22;68420;44.714;37.756;2023-04-06T06:29:06;26.39;40.30
79016;DHT22;68420;44.714;37.756;2023-04-06T06:30:11;26.39;40.32
79016;DHT22;68420;44.714;37.756;2023-04-06T06:31:15;26.39;40.30
79016;DHT22;68420;44.714;37.756;2023-04-06T06:32:18;26.39;40.32
79016;DHT22;68420;44.714;37.756;2023-04-06T06:33:23;26.36;40.32
79016;DHT22;68420;44.714;37.756;2023-04-06T06:34:27;26.37;40.35
79016;DHT22;68420;44.714;37.756;2023-04-06T06:35:31;26.39;40.33
79016;DHT22;68420;44.714;37.756;2023-04-06T06:36:36;26.39;40.31
79016;DHT22;68420;44.714;37.756;2023-04-06T06:37:41;26.40;40.31
79016;DHT22;68420;44.714;37.756;2023-04-06T06:38:47;26.37;40.28
79016;DHT22;68420;44.714;37.756;2023-04-06T06:39:50;26.39;40.31
79016;DHT22;68420;44.714;37.756;2023-04-06T06:40:53;26.39;40.27
79016;DHT22;68420;44.714;37.756;2023-04-06T06:41:56;26.39;40.24